Airport View

Enter AWOS ICAO identifier for current METAR.

ex. KFNL

KDEQ 051253Z AUTO 06005KT 10SM BKN100 22/19 A3005 RMK AO1 SLP170 T02170189 $

5 Aug 2020 13:09

Frequency: 134.075

Phone: 870-642-7829

Other Area AWOS: K4O4 - KMEZ - KTXK - KMWT

TAF KTXK 051120Z 0512/0612 08003KT P6SM BKN100 BKN250 FM051500 08005KT P6SM VCTS SCT050CB OVC080 FM051800 04006KT P6SM VCTS SCT050CB OVC080 FM060000 06004KT P6SM SCT050 BKN140 FM060600 08003KT P6SM BKN080